sensor_id;sensor_type;location;lat;lon;timestamp;temperature;humidity
16663;DHT22;8445;51.270;9.434;2024-02-15T00:00:15;10.60;83.00
16663;DHT22;8445;51.270;9.434;2024-02-15T00:02:43;10.70;83.10
16663;DHT22;8445;51.270;9.434;2024-02-15T00:05:13;10.70;83.00
16663;DHT22;8445;51.270;9.434;2024-02-15T00:07:42;10.70;83.00
16663;DHT22;8445;51.270;9.434;2024-02-15T00:10:08;10.70;83.00
16663;DHT22;8445;51.270;9.434;2024-02-15T00:12:34;10.70;83.10
16663;DHT22;8445;51.270;9.434;2024-02-15T00:15:01;10.70;83.00
16663;DHT22;8445;51.270;9.434;2024-02-15T00:17:30;10.70;83.00
16663;DHT22;8445;51.270;9.434;2024-02-15T00:19:56;10.70;83.00
16663;DHT22;8445;51.270;9.434;2024-02-15T00:22:22;10.80;83.00
16663;DHT22;8445;51.270;9.434;2024-02-15T00:24:48;10.80;83.00
16663;DHT22;8445;51.270;9.434;2024-02-15T00:27:17;10.80;82.90
16663;DHT22;8445;51.270;9.434;2024-02-15T00:29:43;10.80;82.90
16663;DHT22;8445;51.270;9.434;2024-02-15T00:32:09;10.80;82.90
16663;DHT22;8445;51.270;9.434;2024-02-15T00:34:38;10.80;82.90
16663;DHT22;8445;51.270;9.434;2024-02-15T00:37:04;10.80;82.80
16663;DHT22;8445;51.270;9.434;2024-02-15T00:39:31;10.80;82.90
16663;DHT22;8445;51.270;9.434;2024-02-15T00:41:57;10.80;82.80
16663;DHT22;8445;51.270;9.434;2024-02-15T00:44:26;10.80;83.00
16663;DHT22;8445;51.270;9.434;2024-02-15T00:46:52;10.80;83.00
16663;DHT22;8445;51.270;9.434;2024-02-15T00:49:18;10.80;82.90
16663;DHT22;8445;51.270;9.434;2024-02-15T00:51:48;10.90;82.90
16663;DHT22;8445;51.270;9.434;2024-02-15T00:54:29;10.90;82.90
16663;DHT22;8445;51.270;9.434;2024-02-15T00:56:57;10.90;83.00
16663;DHT22;8445;51.270;9.434;2024-02-15T00:59:31;10.90;82.90
16663;DHT22;8445;51.270;9.434;2024-02-15T01:02:01;10.90;82.90
16663;DHT22;8445;51.270;9.434;2024-02-15T01:04:28;10.80;82.90
16663;DHT22;8445;51.270;9.434;2024-02-15T01:06:55;10.90;82.90
16663;DHT22;8445;51.270;9.434;2024-02-15T01:09:24;10.90;82.90
16663;DHT22;8445;51.270;9.434;2024-02-15T01:11:50;10.90;82.90
16663;DHT22;8445;51.270;9.434;2024-02-15T01:14:15;10.90;82.80
16663;DHT22;8445;51.270;9.434;2024-02-15T01:16:42;10.90;82.80
16663;DHT22;8445;51.270;9.434;2024-02-15T01:19:10;10.90;82.80
16663;DHT22;8445;51.270;9.434;2024-02-15T01:21:36;10.90;82.80
16663;DHT22;8445;51.270;9.434;2024-02-15T01:24:04;10.90;82.70
16663;DHT22;8445;51.270;9.434;2024-02-15T01:26:32;10.90;82.70
16663;DHT22;8445;51.270;9.434;2024-02-15T01:28:58;10.90;82.80
16663;DHT22;8445;51.270;9.434;2024-02-15T01:31:24;10.90;82.80
16663;DHT22;8445;51.270;9.434;2024-02-15T01:33:50;10.80;82.80
16663;DHT22;8445;51.270;9.434;2024-02-15T01:36:17;10.80;82.90
16663;DHT22;8445;51.270;9.434;2024-02-15T01:38:44;10.80;82.80
16663;DHT22;8445;51.270;9.434;2024-02-15T01:41:11;10.80;82.90
16663;DHT22;8445;51.270;9.434;2024-02-15T01:43:37;10.70;82.90
16663;DHT22;8445;51.270;9.434;2024-02-15T01:46:10;10.70;83.00
16663;DHT22;8445;51.270;9.434;2024-02-15T01:48:37;10.70;82.90
16663;DHT22;8445;51.270;9.434;2024-02-15T01:51:07;10.70;83.10
16663;DHT22;8445;51.270;9.434;2024-02-15T01:53:36;10.70;83.00
16663;DHT22;8445;51.270;9.434;2024-02-15T01:56:03;10.60;83.10
16663;DHT22;8445;51.270;9.434;2024-02-15T01:58:29;10.60;83.00
16663;DHT22;8445;51.270;9.434;2024-02-15T02:01:00;10.60;83.10
16663;DHT22;8445;51.270;9.434;2024-02-15T02:03:29;10.60;83.30
16663;DHT22;8445;51.270;9.434;2024-02-15T02:05:56;10.60;83.40
16663;DHT22;8445;51.270;9.434;2024-02-15T02:08:22;10.60;83.40
16663;DHT22;8445;51.270;9.434;2024-02-15T02:10:48;10.60;83.40
16663;DHT22;8445;51.270;9.434;2024-02-15T02:13:14;10.60;83.40
16663;DHT22;8445;51.270;9.434;2024-02-15T02:15:40;10.60;83.50
16663;DHT22;8445;51.270;9.434;2024-02-15T02:18:06;10.50;83.60
16663;DHT22;8445;51.270;9.434;2024-02-15T02:20:34;10.50;83.60
16663;DHT22;8445;51.270;9.434;2024-02-15T02:23:09;10.50;83.70
16663;DHT22;8445;51.270;9.434;2024-02-15T02:25:40;10.50;83.80
16663;DHT22;8445;51.270;9.434;2024-02-15T02:28:08;10.40;83.90
16663;DHT22;8445;51.270;9.434;2024-02-15T02:30:34;10.40;83.90
16663;DHT22;8445;51.270;9.434;2024-02-15T02:33:00;10.40;83.80
16663;DHT22;8445;51.270;9.434;2024-02-15T02:35:27;10.40;84.00
16663;DHT22;8445;51.270;9.434;2024-02-15T02:37:56;10.40;84.10
16663;DHT22;8445;51.270;9.434;2024-02-15T02:40:22;10.40;84.20
16663;DHT22;8445;51.270;9.434;2024-02-15T02:42:49;10.40;84.20
16663;DHT22;8445;51.270;9.434;2024-02-15T02:45:22;10.40;84.20
16663;DHT22;8445;51.270;9.434;2024-02-15T02:47:51;10.40;84.20
16663;DHT22;8445;51.270;9.434;2024-02-15T02:50:19;10.40;84.20
16663;DHT22;8445;51.270;9.434;2024-02-15T02:52:51;10.40;84.40
16663;DHT22;8445;51.270;9.434;2024-02-15T02:55:17;10.50;84.50
16663;DHT22;8445;51.270;9.434;2024-02-15T02:57:43;10.50;84.50
16663;DHT22;8445;51.270;9.434;2024-02-15T03:00:13;10.50;84.40
16663;DHT22;8445;51.270;9.434;2024-02-15T03:02:43;10.50;84.50
16663;DHT22;8445;51.270;9.434;2024-02-15T03:05:10;10.50;84.60
16663;DHT22;8445;51.270;9.434;2024-02-15T03:07:39;10.50;84.70
16663;DHT22;8445;51.270;9.434;2024-02-15T03:10:10;10.60;84.70
16663;DHT22;8445;51.270;9.434;2024-02-15T03:12:39;10.60;84.70
16663;DHT22;8445;51.270;9.434;2024-02-15T03:15:06;10.60;84.80
16663;DHT22;8445;51.270;9.434;2024-02-15T03:17:43;10.60;84.80
16663;DHT22;8445;51.270;9.434;2024-02-15T03:20:11;10.70;84.70
16663;DHT22;8445;51.270;9.434;2024-02-15T03:22:55;10.70;84.70
16663;DHT22;8445;51.270;9.434;2024-02-15T03:25:27;10.80;84.60
16663;DHT22;8445;51.270;9.434;2024-02-15T03:27:58;10.80;84.40
16663;DHT22;8445;51.270;9.434;2024-02-15T03:30:30;10.70;84.40
16663;DHT22;8445;51.270;9.434;2024-02-15T03:33:00;10.80;84.50
16663;DHT22;8445;51.270;9.434;2024-02-15T03:35:29;10.70;84.40
16663;DHT22;8445;51.270;9.434;2024-02-15T03:37:57;10.70;84.30
16663;DHT22;8445;51.270;9.434;2024-02-15T03:40:24;10.70;84.30
16663;DHT22;8445;51.270;9.434;2024-02-15T03:42:52;10.80;84.40
16663;DHT22;8445;51.270;9.434;2024-02-15T03:45:19;10.80;84.20
16663;DHT22;8445;51.270;9.434;2024-02-15T03:47:46;10.70;84.20
16663;DHT22;8445;51.270;9.434;2024-02-15T03:50:12;10.80;84.20
16663;DHT22;8445;51.270;9.434;2024-02-15T03:52:40;10.80;84.20
16663;DHT22;8445;51.270;9.434;2024-02-15T03:55:07;10.80;84.30
16663;DHT22;8445;51.270;9.434;2024-02-15T03:57:33;10.80;84.20
16663;DHT22;8445;51.270;9.434;2024-02-15T04:00:00;10.80;84.20
16663;DHT22;8445;51.270;9.434;2024-02-15T04:02:26;10.80;84.20
16663;DHT22;8445;51.270;9.434;2024-02-15T04:04:53;10.80;84.10
16663;DHT22;8445;51.270;9.434;2024-02-15T04:07:21;10.90;84.10
16663;DHT22;8445;51.270;9.434;2024-02-15T04:09:50;10.90;84.20
16663;DHT22;8445;51.270;9.434;2024-02-15T04:12:16;10.90;84.10
16663;DHT22;8445;51.270;9.434;2024-02-15T04:14:45;10.90;84.20
16663;DHT22;8445;51.270;9.434;2024-02-15T04:17:13;10.90;84.30
16663;DHT22;8445;51.270;9.434;2024-02-15T04:19:45;10.90;84.30
16663;DHT22;8445;51.270;9.434;2024-02-15T04:22:16;10.90;84.20
16663;DHT22;8445;51.270;9.434;2024-02-15T04:24:43;10.90;84.10
16663;DHT22;8445;51.270;9.434;2024-02-15T04:27:11;10.90;84.20
16663;DHT22;8445;51.270;9.434;2024-02-15T04:29:40;10.90;84.20
16663;DHT22;8445;51.270;9.434;2024-02-15T04:32:10;10.90;84.30
16663;DHT22;8445;51.270;9.434;2024-02-15T04:34:40;11.00;84.30
16663;DHT22;8445;51.270;9.434;2024-02-15T04:37:06;10.90;84.30
16663;DHT22;8445;51.270;9.434;2024-02-15T04:39:36;10.90;84.30
16663;DHT22;8445;51.270;9.434;2024-02-15T04:42:03;11.00;84.30
16663;DHT22;8445;51.270;9.434;2024-02-15T04:44:31;11.00;84.20
16663;DHT22;8445;51.270;9.434;2024-02-15T04:47:01;11.00;84.20
16663;DHT22;8445;51.270;9.434;2024-02-15T04:49:30;11.00;84.30
16663;DHT22;8445;51.270;9.434;2024-02-15T04:51:56;11.00;84.20
16663;DHT22;8445;51.270;9.434;2024-02-15T04:54:29;11.00;84.30
16663;DHT22;8445;51.270;9.434;2024-02-15T04:56:55;11.00;84.20
16663;DHT22;8445;51.270;9.434;2024-02-15T04:59:22;11.00;84.10
16663;DHT22;8445;51.270;9.434;2024-02-15T05:01:52;11.00;84.10
16663;DHT22;8445;51.270;9.434;2024-02-15T05:04:18;11.00;84.00
16663;DHT22;8445;51.270;9.434;2024-02-15T05:06:44;11.10;84.10
16663;DHT22;8445;51.270;9.434;2024-02-15T05:09:11;11.00;84.00
16663;DHT22;8445;51.270;9.434;2024-02-15T05:11:37;11.10;84.00
16663;DHT22;8445;51.270;9.434;2024-02-15T05:14:07;11.00;83.90
16663;DHT22;8445;51.270;9.434;2024-02-15T05:16:34;11.10;84.00
16663;DHT22;8445;51.270;9.434;2024-02-15T05:19:00;11.10;84.00
16663;DHT22;8445;51.270;9.434;2024-02-15T05:21:25;11.10;84.00
16663;DHT22;8445;51.270;9.434;2024-02-15T05:23:52;11.10;84.00
16663;DHT22;8445;51.270;9.434;2024-02-15T05:26:18;11.10;84.00
16663;DHT22;8445;51.270;9.434;2024-02-15T05:28:51;11.10;84.00
16663;DHT22;8445;51.270;9.434;2024-02-15T05:31:19;11.10;84.00
16663;DHT22;8445;51.270;9.434;2024-02-15T05:33:47;11.00;84.00
16663;DHT22;8445;51.270;9.434;2024-02-15T05:36:14;11.00;84.20
16663;DHT22;8445;51.270;9.434;2024-02-15T05:38:41;11.00;84.10
16663;DHT22;8445;51.270;9.434;2024-02-15T05:41:10;11.00;84.30
16663;DHT22;8445;51.270;9.434;2024-02-15T05:43:38;11.00;84.00
16663;DHT22;8445;51.270;9.434;2024-02-15T05:46:05;11.00;84.10
16663;DHT22;8445;51.270;9.434;2024-02-15T05:48:34;11.00;84.20
16663;DHT22;8445;51.270;9.434;2024-02-15T05:51:01;11.00;84.10
16663;DHT22;8445;51.270;9.434;2024-02-15T05:53:32;11.00;84.10
16663;DHT22;8445;51.270;9.434;2024-02-15T05:56:10;11.00;84.20
16663;DHT22;8445;51.270;9.434;2024-02-15T05:58:37;10.90;84.20
16663;DHT22;8445;51.270;9.434;2024-02-15T06:01:04;10.90;84.20
16663;DHT22;8445;51.270;9.434;2024-02-15T06:03:33;10.90;84.20
16663;DHT22;8445;51.270;9.434;2024-02-15T06:06:03;10.90;84.20
16663;DHT22;8445;51.270;9.434;2024-02-15T06:08:33;10.90;84.30
16663;DHT22;8445;51.270;9.434;2024-02-15T06:11:00;10.90;84.50
16663;DHT22;8445;51.270;9.434;2024-02-15T06:13:27;10.90;84.30
16663;DHT22;8445;51.270;9.434;2024-02-15T06:15:53;10.80;84.30
16663;DHT22;8445;51.270;9.434;2024-02-15T06:18:20;10.80;84.30
16663;DHT22;8445;51.270;9.434;2024-02-15T06:20:59;10.80;84.40
16663;DHT22;8445;51.270;9.434;2024-02-15T06:23:26;10.80;84.30
16663;DHT22;8445;51.270;9.434;2024-02-15T06:25:54;10.70;84.20
16663;DHT22;8445;51.270;9.434;2024-02-15T06:29:04;10.70;84.40
16663;DHT22;8445;51.270;9.434;2024-02-15T06:31:49;10.70;84.50
16663;DHT22;8445;51.270;9.434;2024-02-15T06:34:34;10.70;84.60
16663;DHT22;8445;51.270;9.434;2024-02-15T06:37:36;10.80;84.70
16663;DHT22;8445;51.270;9.434;2024-02-15T06:40:22;10.80;84.70
16663;DHT22;8445;51.270;9.434;2024-02-15T06:42:48;10.80;84.70
16663;DHT22;8445;51.270;9.434;2024-02-15T06:45:14;10.80;84.70
16663;DHT22;8445;51.270;9.434;2024-02-15T06:47:42;10.80;84.60
16663;DHT22;8445;51.270;9.434;2024-02-15T06:50:16;10.80;84.70
16663;DHT22;8445;51.270;9.434;2024-02-15T06:52:42;10.80;84.70
16663;DHT22;8445;51.270;9.434;2024-02-15T06:55:09;10.90;84.70
16663;DHT22;8445;51.270;9.434;2024-02-15T06:57:40;10.90;84.70
16663;DHT22;8445;51.270;9.434;2024-02-15T07:00:08;10.90;84.80
16663;DHT22;8445;51.270;9.434;2024-02-15T07:02:39;10.90;84.80
16663;DHT22;8445;51.270;9.434;2024-02-15T07:05:06;10.90;84.80
16663;DHT22;8445;51.270;9.434;2024-02-15T07:07:32;10.90;84.90
16663;DHT22;8445;51.270;9.434;2024-02-15T07:10:00;10.90;84.80
16663;DHT22;8445;51.270;9.434;2024-02-15T07:12:28;11.00;84.80
16663;DHT22;8445;51.270;9.434;2024-02-15T07:14:54;11.00;84.80
16663;DHT22;8445;51.270;9.434;2024-02-15T07:17:20;11.00;84.70
16663;DHT22;8445;51.270;9.434;2024-02-15T07:19:46;11.10;84.70
16663;DHT22;8445;51.270;9.434;2024-02-15T07:22:17;11.10;84.60
16663;DHT22;8445;51.270;9.434;2024-02-15T07:24:43;11.10;84.50
16663;DHT22;8445;51.270;9.434;2024-02-15T07:27:09;11.10;84.50
16663;DHT22;8445;51.270;9.434;2024-02-15T07:29:37;11.10;84.50
16663;DHT22;8445;51.270;9.434;2024-02-15T07:32:04;11.20;84.50
16663;DHT22;8445;51.270;9.434;2024-02-15T07:34:31;11.30;84.40
16663;DHT22;8445;51.270;9.434;2024-02-15T07:36:56;11.30;84.40
16663;DHT22;8445;51.270;9.434;2024-02-15T07:39:25;11.40;84.30
16663;DHT22;8445;51.270;9.434;2024-02-15T07:41:56;11.40;84.30
16663;DHT22;8445;51.270;9.434;2024-02-15T07:44:25;11.50;84.20
16663;DHT22;8445;51.270;9.434;2024-02-15T07:46:55;11.50;84.20
16663;DHT22;8445;51.270;9.434;2024-02-15T07:49:21;11.50;84.20
16663;DHT22;8445;51.270;9.434;2024-02-15T07:51:48;11.60;84.20
16663;DHT22;8445;51.270;9.434;2024-02-15T07:54:19;11.70;84.10
16663;DHT22;8445;51.270;9.434;2024-02-15T07:56:49;11.80;84.00
16663;DHT22;8445;51.270;9.434;2024-02-15T07:59:15;11.90;83.70
16663;DHT22;8445;51.270;9.434;2024-02-15T08:01:44;11.90;83.40
16663;DHT22;8445;51.270;9.434;2024-02-15T08:04:13;12.00;83.10
16663;DHT22;8445;51.270;9.434;2024-02-15T08:06:39;11.90;83.00
16663;DHT22;8445;51.270;9.434;2024-02-15T08:09:04;12.00;83.00
16663;DHT22;8445;51.270;9.434;2024-02-15T08:11:30;12.00;83.10
16663;DHT22;8445;51.270;9.434;2024-02-15T08:13:56;12.00;83.00
16663;DHT22;8445;51.270;9.434;2024-02-15T08:16:25;12.00;82.90
16663;DHT22;8445;51.270;9.434;2024-02-15T08:18:54;12.00;82.80
16663;DHT22;8445;51.270;9.434;2024-02-15T08:21:28;12.00;82.70
16663;DHT22;8445;51.270;9.434;2024-02-15T08:23:55;12.00;82.70
16663;DHT22;8445;51.270;9.434;2024-02-15T08:26:21;12.00;82.80
16663;DHT22;8445;51.270;9.434;2024-02-15T08:28:48;12.10;82.80
16663;DHT22;8445;51.270;9.434;2024-02-15T08:31:13;12.10;82.70
16663;DHT22;8445;51.270;9.434;2024-02-15T08:33:42;12.10;82.50
16663;DHT22;8445;51.270;9.434;2024-02-15T08:36:12;12.20;82.60
16663;DHT22;8445;51.270;9.434;2024-02-15T08:38:39;12.20;82.50
16663;DHT22;8445;51.270;9.434;2024-02-15T08:41:07;12.20;82.30
16663;DHT22;8445;51.270;9.434;2024-02-15T08:43:34;12.30;82.10
16663;DHT22;8445;51.270;9.434;2024-02-15T08:46:00;12.40;82.10
16663;DHT22;8445;51.270;9.434;2024-02-15T08:48:26;12.50;82.10
16663;DHT22;8445;51.270;9.434;2024-02-15T08:50:53;12.50;82.20
16663;DHT22;8445;51.270;9.434;2024-02-15T08:53:18;12.70;81.90
16663;DHT22;8445;51.270;9.434;2024-02-15T08:55:45;12.90;81.70
16663;DHT22;8445;51.270;9.434;2024-02-15T08:58:11;13.00;81.40
16663;DHT22;8445;51.270;9.434;2024-02-15T09:00:37;13.20;81.00
16663;DHT22;8445;51.270;9.434;2024-02-15T09:03:10;13.30;80.70
16663;DHT22;8445;51.270;9.434;2024-02-15T09:05:37;13.50;80.50
16663;DHT22;8445;51.270;9.434;2024-02-15T09:08:07;13.60;80.10
16663;DHT22;8445;51.270;9.434;2024-02-15T09:10:34;13.70;79.50
16663;DHT22;8445;51.270;9.434;2024-02-15T09:13:01;13.70;78.90
16663;DHT22;8445;51.270;9.434;2024-02-15T09:15:27;13.70;78.50
16663;DHT22;8445;51.270;9.434;2024-02-15T09:17:56;13.80;78.40
16663;DHT22;8445;51.270;9.434;2024-02-15T09:20:23;13.80;78.40
16663;DHT22;8445;51.270;9.434;2024-02-15T09:22:54;13.80;78.80
16663;DHT22;8445;51.270;9.434;2024-02-15T09:25:22;13.90;78.60
16663;DHT22;8445;51.270;9.434;2024-02-15T09:27:49;13.90;78.00
16663;DHT22;8445;51.270;9.434;2024-02-15T09:30:16;13.90;78.00
16663;DHT22;8445;51.270;9.434;2024-02-15T09:32:44;14.00;78.00
16663;DHT22;8445;51.270;9.434;2024-02-15T09:35:11;14.00;77.90
16663;DHT22;8445;51.270;9.434;2024-02-15T09:37:42;14.00;77.90
16663;DHT22;8445;51.270;9.434;2024-02-15T09:40:11;14.10;77.80
16663;DHT22;8445;51.270;9.434;2024-02-15T09:42:38;14.10;77.20
16663;DHT22;8445;51.270;9.434;2024-02-15T09:45:08;14.10;77.50
16663;DHT22;8445;51.270;9.434;2024-02-15T09:47:42;14.10;77.30
16663;DHT22;8445;51.270;9.434;2024-02-15T09:50:09;14.10;77.40
16663;DHT22;8445;51.270;9.434;2024-02-15T09:52:40;14.10;77.60
16663;DHT22;8445;51.270;9.434;2024-02-15T09:55:11;14.20;77.70
16663;DHT22;8445;51.270;9.434;2024-02-15T09:57:47;14.20;77.50
16663;DHT22;8445;51.270;9.434;2024-02-15T10:00:14;14.30;77.50
16663;DHT22;8445;51.270;9.434;2024-02-15T10:02:44;14.30;77.30
16663;DHT22;8445;51.270;9.434;2024-02-15T10:05:13;14.30;77.20
16663;DHT22;8445;51.270;9.434;2024-02-15T10:07:43;14.30;77.00
16663;DHT22;8445;51.270;9.434;2024-02-15T10:12:55;14.20;76.80
16663;DHT22;8445;51.270;9.434;2024-02-15T10:15:36;14.10;76.90
16663;DHT22;8445;51.270;9.434;2024-02-15T10:18:05;14.10;77.20
16663;DHT22;8445;51.270;9.434;2024-02-15T10:20:35;14.10;77.30
16663;DHT22;8445;51.270;9.434;2024-02-15T10:25:35;14.10;77.20
16663;DHT22;8445;51.270;9.434;2024-02-15T10:28:06;14.20;77.30
16663;DHT22;8445;51.270;9.434;2024-02-15T10:30:40;14.20;77.30
16663;DHT22;8445;51.270;9.434;2024-02-15T10:33:09;14.30;77.10
16663;DHT22;8445;51.270;9.434;2024-02-15T10:35:36;14.40;76.90
16663;DHT22;8445;51.270;9.434;2024-02-15T10:38:08;14.50;76.80
16663;DHT22;8445;51.270;9.434;2024-02-15T10:40:40;14.60;76.60
16663;DHT22;8445;51.270;9.434;2024-02-15T10:43:09;14.80;76.40
16663;DHT22;8445;51.270;9.434;2024-02-15T10:45:39;14.90;75.70
16663;DHT22;8445;51.270;9.434;2024-02-15T10:48:08;15.00;75.50
16663;DHT22;8445;51.270;9.434;2024-02-15T10:50:35;15.00;75.50
16663;DHT22;8445;51.270;9.434;2024-02-15T10:53:18;15.10;75.20
16663;DHT22;8445;51.270;9.434;2024-02-15T10:56:18;15.20;75.00
16663;DHT22;8445;51.270;9.434;2024-02-15T10:58:50;15.40;74.90
16663;DHT22;8445;51.270;9.434;2024-02-15T11:01:27;15.50;74.30
16663;DHT22;8445;51.270;9.434;2024-02-15T11:04:00;15.60;73.70
16663;DHT22;8445;51.270;9.434;2024-02-15T11:06:35;15.60;73.40
16663;DHT22;8445;51.270;9.434;2024-02-15T11:09:07;15.50;73.40
16663;DHT22;8445;51.270;9.434;2024-02-15T11:11:37;15.40;72.90
16663;DHT22;8445;51.270;9.434;2024-02-15T11:14:30;15.40;73.30
16663;DHT22;8445;51.270;9.434;2024-02-15T11:17:02;15.30;73.40
16663;DHT22;8445;51.270;9.434;2024-02-15T11:22:14;15.10;73.40
16663;DHT22;8445;51.270;9.434;2024-02-15T11:24:49;15.10;73.40
16663;DHT22;8445;51.270;9.434;2024-02-15T11:27:27;15.10;73.30
16663;DHT22;8445;51.270;9.434;2024-02-15T11:32:42;15.20;73.30
16663;DHT22;8445;51.270;9.434;2024-02-15T11:35:17;15.20;72.80
16663;DHT22;8445;51.270;9.434;2024-02-15T11:42:58;15.40;73.00
16663;DHT22;8445;51.270;9.434;2024-02-15T11:45:26;15.40;72.60
16663;DHT22;8445;51.270;9.434;2024-02-15T11:48:10;15.50;72.80
16663;DHT22;8445;51.270;9.434;2024-02-15T11:50:38;15.70;72.50
16663;DHT22;8445;51.270;9.434;2024-02-15T11:53:06;15.80;72.30
16663;DHT22;8445;51.270;9.434;2024-02-15T11:55:37;16.00;72.20
16663;DHT22;8445;51.270;9.434;2024-02-15T11:58:04;16.20;72.10
16663;DHT22;8445;51.270;9.434;2024-02-15T12:00:44;16.40;71.40
16663;DHT22;8445;51.270;9.434;2024-02-15T12:03:45;16.40;70.50
16663;DHT22;8445;51.270;9.434;2024-02-15T12:06:42;16.40;69.90
16663;DHT22;8445;51.270;9.434;2024-02-15T12:09:27;16.40;70.10
16663;DHT22;8445;51.270;9.434;2024-02-15T12:12:14;16.20;70.20
16663;DHT22;8445;51.270;9.434;2024-02-15T12:15:04;16.20;70.50
16663;DHT22;8445;51.270;9.434;2024-02-15T12:17:49;16.10;70.50
16663;DHT22;8445;51.270;9.434;2024-02-15T12:20:36;16.20;70.70
16663;DHT22;8445;51.270;9.434;2024-02-15T12:23:03;16.20;70.30
16663;DHT22;8445;51.270;9.434;2024-02-15T12:25:32;16.20;70.20
16663;DHT22;8445;51.270;9.434;2024-02-15T12:27:59;16.20;70.30
16663;DHT22;8445;51.270;9.434;2024-02-15T12:30:35;16.20;70.30
16663;DHT22;8445;51.270;9.434;2024-02-15T12:33:10;16.20;70.50
16663;DHT22;8445;51.270;9.434;2024-02-15T12:35:38;16.20;70.70
16663;DHT22;8445;51.270;9.434;2024-02-15T12:38:04;16.20;70.50
16663;DHT22;8445;51.270;9.434;2024-02-15T12:40:36;16.30;70.30
16663;DHT22;8445;51.270;9.434;2024-02-15T12:43:08;16.30;69.80
16663;DHT22;8445;51.270;9.434;2024-02-15T12:45:38;16.20;69.60
16663;DHT22;8445;51.270;9.434;2024-02-15T12:48:09;16.10;69.70
16663;DHT22;8445;51.270;9.434;2024-02-15T12:50:40;16.10;69.80
16663;DHT22;8445;51.270;9.434;2024-02-15T12:53:07;16.00;69.90
16663;DHT22;8445;51.270;9.434;2024-02-15T12:55:36;16.00;70.10
16663;DHT22;8445;51.270;9.434;2024-02-15T12:58:04;16.00;70.20
16663;DHT22;8445;51.270;9.434;2024-02-15T13:00:34;15.90;70.40
16663;DHT22;8445;51.270;9.434;2024-02-15T13:03:05;15.90;70.60
16663;DHT22;8445;51.270;9.434;2024-02-15T13:05:35;15.90;70.70
16663;DHT22;8445;51.270;9.434;2024-02-15T13:08:04;15.90;70.80
16663;DHT22;8445;51.270;9.434;2024-02-15T13:10:35;16.00;70.70
16663;DHT22;8445;51.270;9.434;2024-02-15T13:13:01;16.00;70.40
16663;DHT22;8445;51.270;9.434;2024-02-15T13:15:28;16.10;70.30
16663;DHT22;8445;51.270;9.434;2024-02-15T13:17:59;16.10;70.30
16663;DHT22;8445;51.270;9.434;2024-02-15T13:20:26;16.10;70.50
16663;DHT22;8445;51.270;9.434;2024-02-15T13:23:00;16.20;70.50
16663;DHT22;8445;51.270;9.434;2024-02-15T13:25:38;16.20;70.30
16663;DHT22;8445;51.270;9.434;2024-02-15T13:28:09;16.30;70.30
16663;DHT22;8445;51.270;9.434;2024-02-15T13:30:40;16.30;70.50
16663;DHT22;8445;51.270;9.434;2024-02-15T13:33:21;16.20;70.10
16663;DHT22;8445;51.270;9.434;2024-02-15T13:35:49;16.20;70.20
16663;DHT22;8445;51.270;9.434;2024-02-15T13:38:31;16.10;70.10
16663;DHT22;8445;51.270;9.434;2024-02-15T13:40:59;16.10;70.20
16663;DHT22;8445;51.270;9.434;2024-02-15T13:43:31;16.00;70.30
16663;DHT22;8445;51.270;9.434;2024-02-15T13:46:02;16.00;70.40
16663;DHT22;8445;51.270;9.434;2024-02-15T13:48:31;16.00;70.70
16663;DHT22;8445;51.270;9.434;2024-02-15T13:50:58;16.00;70.80
16663;DHT22;8445;51.270;9.434;2024-02-15T13:53:25;16.00;70.90
16663;DHT22;8445;51.270;9.434;2024-02-15T13:55:52;16.00;71.00
16663;DHT22;8445;51.270;9.434;2024-02-15T13:58:19;16.00;71.10
16663;DHT22;8445;51.270;9.434;2024-02-15T14:00:47;16.10;71.10
16663;DHT22;8445;51.270;9.434;2024-02-15T14:03:18;16.20;71.00
16663;DHT22;8445;51.270;9.434;2024-02-15T14:05:48;16.30;70.70
16663;DHT22;8445;51.270;9.434;2024-02-15T14:08:21;16.40;70.50
16663;DHT22;8445;51.270;9.434;2024-02-15T14:10:48;16.40;70.10
16663;DHT22;8445;51.270;9.434;2024-02-15T14:13:17;16.50;70.20
16663;DHT22;8445;51.270;9.434;2024-02-15T14:15:49;16.50;70.10
16663;DHT22;8445;51.270;9.434;2024-02-15T14:18:18;16.60;69.90
16663;DHT22;8445;51.270;9.434;2024-02-15T14:20:48;16.60;70.00
16663;DHT22;8445;51.270;9.434;2024-02-15T14:23:15;16.60;69.90
16663;DHT22;8445;51.270;9.434;2024-02-15T14:25:45;16.60;69.50
16663;DHT22;8445;51.270;9.434;2024-02-15T14:28:11;16.50;69.40
16663;DHT22;8445;51.270;9.434;2024-02-15T14:30:39;16.50;69.20
16663;DHT22;8445;51.270;9.434;2024-02-15T14:33:26;16.40;69.50
16663;DHT22;8445;51.270;9.434;2024-02-15T14:35:52;16.40;69.60
16663;DHT22;8445;51.270;9.434;2024-02-15T14:38:26;16.20;69.80
16663;DHT22;8445;51.270;9.434;2024-02-15T14:40:52;16.10;69.80
16663;DHT22;8445;51.270;9.434;2024-02-15T14:43:26;16.00;70.00
16663;DHT22;8445;51.270;9.434;2024-02-15T14:45:54;16.00;69.90
16663;DHT22;8445;51.270;9.434;2024-02-15T14:48:27;15.90;70.00
16663;DHT22;8445;51.270;9.434;2024-02-15T14:51:14;15.80;70.10
16663;DHT22;8445;51.270;9.434;2024-02-15T14:53:52;15.80;70.30
16663;DHT22;8445;51.270;9.434;2024-02-15T14:56:24;15.70;70.40
16663;DHT22;8445;51.270;9.434;2024-02-15T14:58:52;15.60;70.50
16663;DHT22;8445;51.270;9.434;2024-02-15T15:01:19;15.60;70.30
16663;DHT22;8445;51.270;9.434;2024-02-15T15:03:55;15.60;70.30
16663;DHT22;8445;51.270;9.434;2024-02-15T15:06:30;15.60;70.30
16663;DHT22;8445;51.270;9.434;2024-02-15T15:09:16;15.60;70.30
16663;DHT22;8445;51.270;9.434;2024-02-15T15:12:02;15.60;70.20
16663;DHT22;8445;51.270;9.434;2024-02-15T15:14:50;15.50;70.20
16663;DHT22;8445;51.270;9.434;2024-02-15T15:17:20;15.50;70.10
16663;DHT22;8445;51.270;9.434;2024-02-15T15:19:54;15.40;70.00
16663;DHT22;8445;51.270;9.434;2024-02-15T15:22:21;15.40;69.80
16663;DHT22;8445;51.270;9.434;2024-02-15T15:24:52;15.30;69.70
16663;DHT22;8445;51.270;9.434;2024-02-15T15:27:22;15.20;69.70
16663;DHT22;8445;51.270;9.434;2024-02-15T15:29:54;15.20;69.60
16663;DHT22;8445;51.270;9.434;2024-02-15T15:32:25;15.00;69.50
16663;DHT22;8445;51.270;9.434;2024-02-15T15:34:53;15.00;69.60
16663;DHT22;8445;51.270;9.434;2024-02-15T15:37:21;14.90;69.70
16663;DHT22;8445;51.270;9.434;2024-02-15T15:39:50;14.80;69.80
16663;DHT22;8445;51.270;9.434;2024-02-15T15:42:22;14.70;69.80
16663;DHT22;8445;51.270;9.434;2024-02-15T15:44:49;14.70;69.70
16663;DHT22;8445;51.270;9.434;2024-02-15T15:47:17;14.60;69.60
16663;DHT22;8445;51.270;9.434;2024-02-15T15:49:46;14.50;69.60
16663;DHT22;8445;51.270;9.434;2024-02-15T15:52:14;14.40;69.80
16663;DHT22;8445;51.270;9.434;2024-02-15T15:54:42;14.30;69.70
16663;DHT22;8445;51.270;9.434;2024-02-15T15:57:10;14.20;69.80
16663;DHT22;8445;51.270;9.434;2024-02-15T15:59:36;14.10;69.90
16663;DHT22;8445;51.270;9.434;2024-02-15T16:02:02;14.00;70.00
16663;DHT22;8445;51.270;9.434;2024-02-15T16:04:30;13.90;70.10
16663;DHT22;8445;51.270;9.434;2024-02-15T16:06:56;13.80;70.20
16663;DHT22;8445;51.270;9.434;2024-02-15T16:09:22;13.70;70.30
16663;DHT22;8445;51.270;9.434;2024-02-15T16:11:49;13.60;70.40
16663;DHT22;8445;51.270;9.434;2024-02-15T16:14:15;13.50;70.60
16663;DHT22;8445;51.270;9.434;2024-02-15T16:16:43;13.40;70.90